sensor_id;sensor_type;location;lat;lon;timestamp;P1;durP1;ratioP1;P2;durP2;ratioP2
52188;SDS011;38162;45.926;13.608;2023-04-25T00:01:45;6.45;;;4.32;;
52188;SDS011;38162;45.926;13.608;2023-04-25T00:04:12;9.95;;;5.00;;
52188;SDS011;38162;45.926;13.608;2023-04-25T00:06:38;5.05;;;4.10;;
52188;SDS011;38162;45.926;13.608;2023-04-25T00:09:04;4.57;;;4.10;;
52188;SDS011;38162;45.926;13.608;2023-04-25T00:11:32;5.57;;;3.88;;
52188;SDS011;38162;45.926;13.608;2023-04-25T00:13:59;8.10;;;4.50;;
52188;SDS011;38162;45.926;13.608;2023-04-25T00:16:27;6.38;;;3.63;;
52188;SDS011;38162;45.926;13.608;2023-04-25T00:18:54;7.72;;;4.07;;
52188;SDS011;38162;45.926;13.608;2023-04-25T00:21:20;4.13;;;3.65;;
52188;SDS011;38162;45.926;13.608;2023-04-25T00:23:46;4.80;;;4.30;;
52188;SDS011;38162;45.926;13.608;2023-04-25T00:26:12;5.47;;;3.92;;
52188;SDS011;38162;45.926;13.608;2023-04-25T00:28:38;5.18;;;3.47;;
52188;SDS011;38162;45.926;13.608;2023-04-25T00:31:05;4.72;;;3.95;;
52188;SDS011;38162;45.926;13.608;2023-04-25T00:33:30;5.68;;;4.40;;
52188;SDS011;38162;45.926;13.608;2023-04-25T00:35:56;6.68;;;4.47;;
52188;SDS011;38162;45.926;13.608;2023-04-25T00:38:22;6.22;;;4.40;;
52188;SDS011;38162;45.926;13.608;2023-04-25T00:40:48;4.30;;;3.90;;
52188;SDS011;38162;45.926;13.608;2023-04-25T00:43:13;11.80;;;4.10;;
52188;SDS011;38162;45.926;13.608;2023-04-25T00:45:39;10.00;;;4.22;;
52188;SDS011;38162;45.926;13.608;2023-04-25T00:48:05;9.05;;;4.40;;
52188;SDS011;38162;45.926;13.608;2023-04-25T00:50:35;7.47;;;4.75;;
52188;SDS011;38162;45.926;13.608;2023-04-25T00:53:01;7.88;;;4.43;;
52188;SDS011;38162;45.926;13.608;2023-04-25T00:55:28;5.15;;;4.32;;
52188;SDS011;38162;45.926;13.608;2023-04-25T00:57:56;6.55;;;4.28;;
52188;SDS011;38162;45.926;13.608;2023-04-25T01:00:22;8.00;;;4.65;;
52188;SDS011;38162;45.926;13.608;2023-04-25T01:02:48;6.32;;;3.90;;
52188;SDS011;38162;45.926;13.608;2023-04-25T01:05:15;6.10;;;3.95;;
52188;SDS011;38162;45.926;13.608;2023-04-25T01:07:41;8.55;;;4.10;;
52188;SDS011;38162;45.926;13.608;2023-04-25T01:10:07;4.95;;;3.40;;
52188;SDS011;38162;45.926;13.608;2023-04-25T01:12:33;4.32;;;3.35;;
52188;SDS011;38162;45.926;13.608;2023-04-25T01:14:59;6.82;;;2.80;;
52188;SDS011;38162;45.926;13.608;2023-04-25T01:17:25;4.75;;;2.95;;
52188;SDS011;38162;45.926;13.608;2023-04-25T01:19:52;4.18;;;2.53;;
52188;SDS011;38162;45.926;13.608;2023-04-25T01:22:18;4.28;;;2.70;;
52188;SDS011;38162;45.926;13.608;2023-04-25T01:24:44;6.18;;;3.05;;
52188;SDS011;38162;45.926;13.608;2023-04-25T01:27:10;5.93;;;2.50;;
52188;SDS011;38162;45.926;13.608;2023-04-25T01:29:36;3.25;;;2.72;;
52188;SDS011;38162;45.926;13.608;2023-04-25T01:32:02;3.20;;;2.38;;
52188;SDS011;38162;45.926;13.608;2023-04-25T01:34:29;12.82;;;3.65;;
52188;SDS011;38162;45.926;13.608;2023-04-25T01:36:55;7.13;;;3.10;;
52188;SDS011;38162;45.926;13.608;2023-04-25T01:39:21;4.40;;;2.90;;
52188;SDS011;38162;45.926;13.608;2023-04-25T01:41:47;5.28;;;3.00;;
52188;SDS011;38162;45.926;13.608;2023-04-25T01:44:13;3.78;;;2.90;;
52188;SDS011;38162;45.926;13.608;2023-04-25T01:46:39;6.30;;;2.80;;
52188;SDS011;38162;45.926;13.608;2023-04-25T01:49:05;4.05;;;2.60;;
52188;SDS011;38162;45.926;13.608;2023-04-25T01:51:31;3.80;;;2.67;;
52188;SDS011;38162;45.926;13.608;2023-04-25T01:53:57;3.35;;;2.60;;
52188;SDS011;38162;45.926;13.608;2023-04-25T01:56:23;3.55;;;2.70;;
52188;SDS011;38162;45.926;13.608;2023-04-25T01:58:50;4.45;;;2.67;;
52188;SDS011;38162;45.926;13.608;2023-04-25T02:01:16;6.18;;;2.58;;
52188;SDS011;38162;45.926;13.608;2023-04-25T02:03:42;4.72;;;2.70;;
52188;SDS011;38162;45.926;13.608;2023-04-25T02:06:08;5.40;;;3.13;;
52188;SDS011;38162;45.926;13.608;2023-04-25T02:08:34;6.78;;;3.03;;
52188;SDS011;38162;45.926;13.608;2023-04-25T02:11:00;3.58;;;2.75;;
52188;SDS011;38162;45.926;13.608;2023-04-25T02:13:25;10.23;;;2.90;;
52188;SDS011;38162;45.926;13.608;2023-04-25T02:15:51;6.78;;;3.22;;
52188;SDS011;38162;45.926;13.608;2023-04-25T02:18:17;5.35;;;2.78;;
52188;SDS011;38162;45.926;13.608;2023-04-25T02:20:43;3.83;;;2.47;;
52188;SDS011;38162;45.926;13.608;2023-04-25T02:23:09;6.80;;;2.70;;
52188;SDS011;38162;45.926;13.608;2023-04-25T02:25:34;5.60;;;2.65;;
52188;SDS011;38162;45.926;13.608;2023-04-25T02:28:00;4.90;;;2.65;;
52188;SDS011;38162;45.926;13.608;2023-04-25T02:30:26;4.95;;;2.55;;
52188;SDS011;38162;45.926;13.608;2023-04-25T02:32:52;3.30;;;2.70;;
52188;SDS011;38162;45.926;13.608;2023-04-25T02:35:18;2.78;;;2.13;;
52188;SDS011;38162;45.926;13.608;2023-04-25T02:37:44;3.28;;;2.90;;
52188;SDS011;38162;45.926;13.608;2023-04-25T02:40:10;4.68;;;2.42;;
52188;SDS011;38162;45.926;13.608;2023-04-25T02:42:36;3.15;;;2.35;;
52188;SDS011;38162;45.926;13.608;2023-04-25T02:45:02;2.65;;;2.17;;
52188;SDS011;38162;45.926;13.608;2023-04-25T02:47:28;4.93;;;1.38;;
52188;SDS011;38162;45.926;13.608;2023-04-25T02:49:54;2.65;;;1.50;;
52188;SDS011;38162;45.926;13.608;2023-04-25T02:52:19;3.60;;;1.15;;
52188;SDS011;38162;45.926;13.608;2023-04-25T02:54:46;2.38;;;0.93;;
52188;SDS011;38162;45.926;13.608;2023-04-25T02:57:12;4.03;;;1.30;;
52188;SDS011;38162;45.926;13.608;2023-04-25T02:59:37;4.82;;;1.58;;
52188;SDS011;38162;45.926;13.608;2023-04-25T03:02:03;2.13;;;1.33;;
52188;SDS011;38162;45.926;13.608;2023-04-25T03:04:29;2.75;;;2.13;;
52188;SDS011;38162;45.926;13.608;2023-04-25T03:06:55;3.88;;;2.08;;
52188;SDS011;38162;45.926;13.608;2023-04-25T03:09:21;7.97;;;2.00;;
52188;SDS011;38162;45.926;13.608;2023-04-25T03:11:46;5.43;;;1.70;;
52188;SDS011;38162;45.926;13.608;2023-04-25T03:14:12;4.20;;;2.60;;
52188;SDS011;38162;45.926;13.608;2023-04-25T03:16:39;3.67;;;2.50;;
52188;SDS011;38162;45.926;13.608;2023-04-25T03:19:04;2.60;;;1.95;;
52188;SDS011;38162;45.926;13.608;2023-04-25T03:21:31;2.85;;;2.30;;
52188;SDS011;38162;45.926;13.608;2023-04-25T03:23:58;3.00;;;2.08;;
52188;SDS011;38162;45.926;13.608;2023-04-25T03:26:24;5.15;;;1.75;;
52188;SDS011;38162;45.926;13.608;2023-04-25T03:28:50;3.35;;;1.20;;
52188;SDS011;38162;45.926;13.608;2023-04-25T03:31:16;2.30;;;1.10;;
52188;SDS011;38162;45.926;13.608;2023-04-25T03:33:41;3.80;;;1.50;;
52188;SDS011;38162;45.926;13.608;2023-04-25T03:36:07;3.13;;;1.70;;
52188;SDS011;38162;45.926;13.608;2023-04-25T03:38:33;2.85;;;1.73;;
52188;SDS011;38162;45.926;13.608;2023-04-25T03:41:00;2.35;;;1.75;;
52188;SDS011;38162;45.926;13.608;2023-04-25T03:43:26;4.80;;;1.77;;
52188;SDS011;38162;45.926;13.608;2023-04-25T03:45:52;4.07;;;1.77;;
52188;SDS011;38162;45.926;13.608;2023-04-25T03:48:18;4.47;;;1.75;;
52188;SDS011;38162;45.926;13.608;2023-04-25T03:50:46;2.83;;;2.10;;
52188;SDS011;38162;45.926;13.608;2023-04-25T03:53:12;4.07;;;2.05;;
52188;SDS011;38162;45.926;13.608;2023-04-25T03:55:38;3.95;;;1.80;;
52188;SDS011;38162;45.926;13.608;2023-04-25T03:58:03;5.00;;;1.90;;
52188;SDS011;38162;45.926;13.608;2023-04-25T04:00:30;5.30;;;2.10;;
52188;SDS011;38162;45.926;13.608;2023-04-25T04:02:55;2.25;;;1.45;;
52188;SDS011;38162;45.926;13.608;2023-04-25T04:05:21;4.05;;;1.73;;
52188;SDS011;38162;45.926;13.608;2023-04-25T04:07:47;6.40;;;1.65;;
52188;SDS011;38162;45.926;13.608;2023-04-25T04:10:13;4.57;;;1.77;;
52188;SDS011;38162;45.926;13.608;2023-04-25T04:12:38;6.32;;;2.17;;
52188;SDS011;38162;45.926;13.608;2023-04-25T04:15:04;4.18;;;2.25;;
52188;SDS011;38162;45.926;13.608;2023-04-25T04:17:31;5.68;;;2.50;;
52188;SDS011;38162;45.926;13.608;2023-04-25T04:19:57;3.33;;;2.13;;
52188;SDS011;38162;45.926;13.608;2023-04-25T04:22:23;6.85;;;2.28;;
52188;SDS011;38162;45.926;13.608;2023-04-25T04:24:49;2.55;;;2.20;;
52188;SDS011;38162;45.926;13.608;2023-04-25T04:27:17;4.88;;;2.38;;
52188;SDS011;38162;45.926;13.608;2023-04-25T04:29:43;2.45;;;1.75;;
52188;SDS011;38162;45.926;13.608;2023-04-25T04:32:09;5.07;;;1.90;;
52188;SDS011;38162;45.926;13.608;2023-04-25T04:34:35;1.75;;;1.55;;
52188;SDS011;38162;45.926;13.608;2023-04-25T04:37:01;4.13;;;1.58;;
52188;SDS011;38162;45.926;13.608;2023-04-25T04:39:27;2.65;;;1.80;;
52188;SDS011;38162;45.926;13.608;2023-04-25T04:41:53;2.05;;;1.50;;
52188;SDS011;38162;45.926;13.608;2023-04-25T04:44:19;5.65;;;1.58;;
52188;SDS011;38162;45.926;13.608;2023-04-25T04:46:45;2.30;;;1.50;;
52188;SDS011;38162;45.926;13.608;2023-04-25T04:49:11;2.05;;;1.55;;
52188;SDS011;38162;45.926;13.608;2023-04-25T04:51:39;2.60;;;1.60;;
52188;SDS011;38162;45.926;13.608;2023-04-25T04:54:06;2.15;;;1.60;;
52188;SDS011;38162;45.926;13.608;2023-04-25T04:56:32;5.72;;;1.50;;
52188;SDS011;38162;45.926;13.608;2023-04-25T04:58:58;5.00;;;1.80;;
52188;SDS011;38162;45.926;13.608;2023-04-25T05:01:25;3.45;;;1.60;;
52188;SDS011;38162;45.926;13.608;2023-04-25T05:03:51;4.28;;;1.77;;
52188;SDS011;38162;45.926;13.608;2023-04-25T05:06:20;2.35;;;1.70;;
52188;SDS011;38162;45.926;13.608;2023-04-25T05:08:46;5.10;;;2.00;;
52188;SDS011;38162;45.926;13.608;2023-04-25T05:11:11;3.53;;;1.98;;
52188;SDS011;38162;45.926;13.608;2023-04-25T05:13:37;5.43;;;2.50;;
52188;SDS011;38162;45.926;13.608;2023-04-25T05:16:03;8.55;;;1.90;;
52188;SDS011;38162;45.926;13.608;2023-04-25T05:18:29;4.40;;;2.00;;
52188;SDS011;38162;45.926;13.608;2023-04-25T05:20:55;3.30;;;2.13;;
52188;SDS011;38162;45.926;13.608;2023-04-25T05:23:20;4.93;;;2.45;;
52188;SDS011;38162;45.926;13.608;2023-04-25T05:25:46;4.25;;;2.60;;
52188;SDS011;38162;45.926;13.608;2023-04-25T05:28:12;3.38;;;2.30;;
52188;SDS011;38162;45.926;13.608;2023-04-25T05:30:38;4.72;;;2.83;;
52188;SDS011;38162;45.926;13.608;2023-04-25T05:33:04;5.03;;;2.20;;
52188;SDS011;38162;45.926;13.608;2023-04-25T05:35:30;3.60;;;1.85;;
52188;SDS011;38162;45.926;13.608;2023-04-25T05:37:56;4.93;;;1.40;;
52188;SDS011;38162;45.926;13.608;2023-04-25T05:40:21;1.77;;;1.30;;
52188;SDS011;38162;45.926;13.608;2023-04-25T05:42:47;2.13;;;1.20;;
52188;SDS011;38162;45.926;13.608;2023-04-25T05:45:13;5.18;;;1.33;;
52188;SDS011;38162;45.926;13.608;2023-04-25T05:47:38;2.53;;;1.17;;
52188;SDS011;38162;45.926;13.608;2023-04-25T05:50:04;2.70;;;1.50;;
52188;SDS011;38162;45.926;13.608;2023-04-25T05:52:31;4.40;;;1.25;;
52188;SDS011;38162;45.926;13.608;2023-04-25T05:54:56;3.95;;;1.63;;
52188;SDS011;38162;45.926;13.608;2023-04-25T05:57:25;1.33;;;1.10;;
52188;SDS011;38162;45.926;13.608;2023-04-25T05:59:52;1.75;;;1.00;;
52188;SDS011;38162;45.926;13.608;2023-04-25T06:02:21;2.75;;;1.10;;
52188;SDS011;38162;45.926;13.608;2023-04-25T06:04:50;3.55;;;1.20;;
52188;SDS011;38162;45.926;13.608;2023-04-25T06:07:16;2.00;;;1.00;;
52188;SDS011;38162;45.926;13.608;2023-04-25T06:09:43;3.53;;;0.98;;
52188;SDS011;38162;45.926;13.608;2023-04-25T06:12:09;2.30;;;1.02;;
52188;SDS011;38162;45.926;13.608;2023-04-25T06:14:35;11.75;;;1.25;;
52188;SDS011;38162;45.926;13.608;2023-04-25T06:17:03;2.38;;;1.27;;
52188;SDS011;38162;45.926;13.608;2023-04-25T06:19:33;2.65;;;1.00;;
52188;SDS011;38162;45.926;13.608;2023-04-25T06:22:00;4.30;;;1.05;;
52188;SDS011;38162;45.926;13.608;2023-04-25T06:24:26;5.10;;;1.00;;
52188;SDS011;38162;45.926;13.608;2023-04-25T06:26:52;3.85;;;1.10;;
52188;SDS011;38162;45.926;13.608;2023-04-25T06:29:18;4.45;;;1.10;;
52188;SDS011;38162;45.926;13.608;2023-04-25T06:31:43;2.17;;;1.10;;
52188;SDS011;38162;45.926;13.608;2023-04-25T06:34:09;8.35;;;1.05;;
52188;SDS011;38162;45.926;13.608;2023-04-25T06:36:35;3.25;;;0.90;;
52188;SDS011;38162;45.926;13.608;2023-04-25T06:39:02;2.22;;;0.82;;
52188;SDS011;38162;45.926;13.608;2023-04-25T06:41:27;1.92;;;0.80;;
52188;SDS011;38162;45.926;13.608;2023-04-25T06:43:53;2.78;;;1.48;;
52188;SDS011;38162;45.926;13.608;2023-04-25T06:46:19;2.08;;;0.93;;
52188;SDS011;38162;45.926;13.608;2023-04-25T06:48:45;1.17;;;0.73;;
52188;SDS011;38162;45.926;13.608;2023-04-25T06:51:11;2.58;;;0.95;;
52188;SDS011;38162;45.926;13.608;2023-04-25T06:53:38;1.50;;;0.90;;
52188;SDS011;38162;45.926;13.608;2023-04-25T06:56:04;5.47;;;1.40;;
52188;SDS011;38162;45.926;13.608;2023-04-25T06:58:30;3.03;;;1.38;;
52188;SDS011;38162;45.926;13.608;2023-04-25T07:00:56;3.05;;;1.77;;
52188;SDS011;38162;45.926;13.608;2023-04-25T07:03:22;7.68;;;2.05;;
52188;SDS011;38162;45.926;13.608;2023-04-25T07:05:47;7.05;;;2.13;;
52188;SDS011;38162;45.926;13.608;2023-04-25T07:08:13;6.03;;;1.70;;
52188;SDS011;38162;45.926;13.608;2023-04-25T07:10:39;5.78;;;1.52;;
52188;SDS011;38162;45.926;13.608;2023-04-25T07:13:05;8.00;;;2.10;;
52188;SDS011;38162;45.926;13.608;2023-04-25T07:15:30;8.90;;;1.75;;
52188;SDS011;38162;45.926;13.608;2023-04-25T07:17:56;5.13;;;1.75;;
52188;SDS011;38162;45.926;13.608;2023-04-25T07:20:22;3.85;;;1.73;;
52188;SDS011;38162;45.926;13.608;2023-04-25T07:22:48;6.18;;;1.60;;
52188;SDS011;38162;45.926;13.608;2023-04-25T07:25:14;5.47;;;1.52;;
52188;SDS011;38162;45.926;13.608;2023-04-25T07:27:41;5.95;;;1.65;;
52188;SDS011;38162;45.926;13.608;2023-04-25T07:30:07;5.97;;;1.83;;
52188;SDS011;38162;45.926;13.608;2023-04-25T07:32:33;3.38;;;1.50;;
52188;SDS011;38162;45.926;13.608;2023-04-25T07:34:59;5.22;;;1.63;;
52188;SDS011;38162;45.926;13.608;2023-04-25T07:37:24;5.50;;;1.60;;
52188;SDS011;38162;45.926;13.608;2023-04-25T07:39:51;7.63;;;1.83;;
52188;SDS011;38162;45.926;13.608;2023-04-25T07:42:17;2.85;;;1.20;;
52188;SDS011;38162;45.926;13.608;2023-04-25T07:44:42;2.65;;;1.13;;
52188;SDS011;38162;45.926;13.608;2023-04-25T07:47:08;4.43;;;1.10;;
52188;SDS011;38162;45.926;13.608;2023-04-25T07:49:35;2.80;;;1.10;;
52188;SDS011;38162;45.926;13.608;2023-04-25T07:52:02;3.35;;;1.00;;
52188;SDS011;38162;45.926;13.608;2023-04-25T07:54:29;2.08;;;1.20;;
52188;SDS011;38162;45.926;13.608;2023-04-25T07:56:55;1.80;;;0.93;;
52188;SDS011;38162;45.926;13.608;2023-04-25T07:59:21;2.55;;;0.98;;
52188;SDS011;38162;45.926;13.608;2023-04-25T08:01:47;2.38;;;1.02;;
52188;SDS011;38162;45.926;13.608;2023-04-25T08:04:13;3.60;;;1.08;;
52188;SDS011;38162;45.926;13.608;2023-04-25T08:06:38;3.33;;;0.95;;
52188;SDS011;38162;45.926;13.608;2023-04-25T08:09:05;2.63;;;0.88;;
52188;SDS011;38162;45.926;13.608;2023-04-25T08:11:31;2.38;;;1.15;;
52188;SDS011;38162;45.926;13.608;2023-04-25T08:13:56;2.20;;;1.60;;
52188;SDS011;38162;45.926;13.608;2023-04-25T08:16:22;2.58;;;1.00;;
52188;SDS011;38162;45.926;13.608;2023-04-25T08:18:49;1.15;;;0.90;;
52188;SDS011;38162;45.926;13.608;2023-04-25T08:21:15;1.52;;;0.95;;
52188;SDS011;38162;45.926;13.608;2023-04-25T08:23:41;1.63;;;1.08;;
52188;SDS011;38162;45.926;13.608;2023-04-25T08:26:07;6.22;;;1.90;;
52188;SDS011;38162;45.926;13.608;2023-04-25T08:28:32;2.67;;;2.30;;
52188;SDS011;38162;45.926;13.608;2023-04-25T08:30:58;1.42;;;0.90;;
52188;SDS011;38162;45.926;13.608;2023-04-25T08:33:24;2.97;;;1.27;;
52188;SDS011;38162;45.926;13.608;2023-04-25T08:35:50;2.65;;;1.70;;
52188;SDS011;38162;45.926;13.608;2023-04-25T08:38:17;2.22;;;1.10;;
52188;SDS011;38162;45.926;13.608;2023-04-25T08:40:43;1.13;;;0.82;;
52188;SDS011;38162;45.926;13.608;2023-04-25T08:43:09;2.15;;;1.20;;
52188;SDS011;38162;45.926;13.608;2023-04-25T08:45:40;1.60;;;1.38;;
52188;SDS011;38162;45.926;13.608;2023-04-25T08:48:12;4.95;;;1.70;;
52188;SDS011;38162;45.926;13.608;2023-04-25T08:50:51;3.15;;;1.60;;
52188;SDS011;38162;45.926;13.608;2023-04-25T08:53:23;2.67;;;1.20;;
52188;SDS011;38162;45.926;13.608;2023-04-25T08:55:52;3.45;;;1.30;;
52188;SDS011;38162;45.926;13.608;2023-04-25T08:58:20;1.60;;;1.40;;
52188;SDS011;38162;45.926;13.608;2023-04-25T09:00:46;2.25;;;1.60;;
52188;SDS011;38162;45.926;13.608;2023-04-25T09:03:13;3.25;;;1.73;;
52188;SDS011;38162;45.926;13.608;2023-04-25T09:05:40;2.90;;;1.60;;
52188;SDS011;38162;45.926;13.608;2023-04-25T09:08:06;5.38;;;1.60;;
52188;SDS011;38162;45.926;13.608;2023-04-25T09:10:32;2.05;;;1.40;;
52188;SDS011;38162;45.926;13.608;2023-04-25T09:13:08;3.08;;;1.30;;
52188;SDS011;38162;45.926;13.608;2023-04-25T09:15:55;3.05;;;1.63;;
52188;SDS011;38162;45.926;13.608;2023-04-25T09:18:23;3.90;;;1.40;;
52188;SDS011;38162;45.926;13.608;2023-04-25T09:20:50;2.03;;;1.52;;
52188;SDS011;38162;45.926;13.608;2023-04-25T09:23:20;1.88;;;1.30;;
52188;SDS011;38162;45.926;13.608;2023-04-25T09:25:51;4.95;;;1.70;;
52188;SDS011;38162;45.926;13.608;2023-04-25T09:28:25;3.80;;;1.95;;
52188;SDS011;38162;45.926;13.608;2023-04-25T09:33:27;1.92;;;1.08;;
52188;SDS011;38162;45.926;13.608;2023-04-25T09:35:56;2.28;;;1.30;;
52188;SDS011;38162;45.926;13.608;2023-04-25T09:38:42;1.08;;;0.90;;
52188;SDS011;38162;45.926;13.608;2023-04-25T09:41:10;2.75;;;1.13;;
52188;SDS011;38162;45.926;13.608;2023-04-25T09:43:36;2.85;;;1.00;;
52188;SDS011;38162;45.926;13.608;2023-04-25T09:46:02;2.10;;;0.90;;
52188;SDS011;38162;45.926;13.608;2023-04-25T09:48:34;1.75;;;0.85;;
52188;SDS011;38162;45.926;13.608;2023-04-25T09:51:10;3.83;;;0.77;;
52188;SDS011;38162;45.926;13.608;2023-04-25T09:53:39;3.22;;;0.95;;
52188;SDS011;38162;45.926;13.608;2023-04-25T09:56:08;1.00;;;0.70;;
52188;SDS011;38162;45.926;13.608;2023-04-25T09:58:36;3.72;;;1.10;;
52188;SDS011;38162;45.926;13.608;2023-04-25T10:01:04;0.98;;;0.70;;
52188;SDS011;38162;45.926;13.608;2023-04-25T10:03:31;1.85;;;0.95;;
52188;SDS011;38162;45.926;13.608;2023-04-25T10:05:59;3.28;;;0.90;;
52188;SDS011;38162;45.926;13.608;2023-04-25T10:08:33;1.48;;;0.82;;
52188;SDS011;38162;45.926;13.608;2023-04-25T10:11:01;1.60;;;0.95;;
52188;SDS011;38162;45.926;13.608;2023-04-25T10:13:31;2.08;;;1.17;;
52188;SDS011;38162;45.926;13.608;2023-04-25T10:15:58;1.10;;;1.00;;
52188;SDS011;38162;45.926;13.608;2023-04-25T10:18:28;3.80;;;1.40;;
52188;SDS011;38162;45.926;13.608;2023-04-25T10:21:00;4.35;;;2.58;;
52188;SDS011;38162;45.926;13.608;2023-04-25T10:23:29;2.47;;;1.60;;
52188;SDS011;38162;45.926;13.608;2023-04-25T10:25:56;4.05;;;0.90;;
52188;SDS011;38162;45.926;13.608;2023-04-25T10:28:22;3.67;;;0.80;;
52188;SDS011;38162;45.926;13.608;2023-04-25T10:31:04;3.13;;;1.02;;
52188;SDS011;38162;45.926;13.608;2023-04-25T10:33:33;1.38;;;0.95;;
52188;SDS011;38162;45.926;13.608;2023-04-25T10:39:03;1.83;;;0.90;;
52188;SDS011;38162;45.926;13.608;2023-04-25T10:42:07;4.45;;;1.00;;
52188;SDS011;38162;45.926;13.608;2023-04-25T10:44:27;2.60;;;0.70;;
52188;SDS011;38162;45.926;13.608;2023-04-25T10:47:03;0.90;;;0.70;;
52188;SDS011;38162;45.926;13.608;2023-04-25T10:49:41;1.83;;;0.90;;
52188;SDS011;38162;45.926;13.608;2023-04-25T10:52:11;1.65;;;0.80;;
52188;SDS011;38162;45.926;13.608;2023-04-25T10:54:52;1.23;;;0.90;;
52188;SDS011;38162;45.926;13.608;2023-04-25T11:02:30;1.27;;;0.80;;
52188;SDS011;38162;45.926;13.608;2023-04-25T11:04:56;1.90;;;0.90;;
52188;SDS011;38162;45.926;13.608;2023-04-25T11:10:04;3.67;;;0.80;;
52188;SDS011;38162;45.926;13.608;2023-04-25T11:12:31;2.97;;;1.02;;
52188;SDS011;38162;45.926;13.608;2023-04-25T11:14:58;2.00;;;1.10;;
52188;SDS011;38162;45.926;13.608;2023-04-25T11:17:31;3.30;;;1.00;;
52188;SDS011;38162;45.926;13.608;2023-04-25T11:19:57;4.07;;;1.08;;
52188;SDS011;38162;45.926;13.608;2023-04-25T11:22:23;2.22;;;0.93;;
52188;SDS011;38162;45.926;13.608;2023-04-25T11:24:49;2.28;;;1.20;;
52188;SDS011;38162;45.926;13.608;2023-04-25T11:27:15;5.40;;;1.77;;
52188;SDS011;38162;45.926;13.608;2023-04-25T11:29:41;1.95;;;0.90;;
52188;SDS011;38162;45.926;13.608;2023-04-25T11:32:07;2.80;;;0.80;;
52188;SDS011;38162;45.926;13.608;2023-04-25T11:34:33;1.80;;;0.80;;
52188;SDS011;38162;45.926;13.608;2023-04-25T11:37:02;1.63;;;0.80;;
52188;SDS011;38162;45.926;13.608;2023-04-25T11:39:29;1.40;;;0.88;;
52188;SDS011;38162;45.926;13.608;2023-04-25T11:41:55;1.23;;;0.77;;
52188;SDS011;38162;45.926;13.608;2023-04-25T11:44:21;1.25;;;0.82;;
52188;SDS011;38162;45.926;13.608;2023-04-25T11:46:47;3.38;;;1.20;;
52188;SDS011;38162;45.926;13.608;2023-04-25T11:49:14;3.65;;;1.42;;
52188;SDS011;38162;45.926;13.608;2023-04-25T11:51:41;1.13;;;0.90;;
52188;SDS011;38162;45.926;13.608;2023-04-25T11:54:08;1.80;;;0.88;;
52188;SDS011;38162;45.926;13.608;2023-04-25T11:56:34;1.50;;;0.70;;
52188;SDS011;38162;45.926;13.608;2023-04-25T11:59:01;2.95;;;1.83;;
52188;SDS011;38162;45.926;13.608;2023-04-25T12:01:35;1.85;;;1.10;;
52188;SDS011;38162;45.926;13.608;2023-04-25T12:06:38;2.53;;;1.10;;
52188;SDS011;38162;45.926;13.608;2023-04-25T12:09:07;2.30;;;0.93;;
52188;SDS011;38162;45.926;13.608;2023-04-25T12:11:45;1.98;;;1.02;;
52188;SDS011;38162;45.926;13.608;2023-04-25T12:14:19;2.10;;;1.50;;
52188;SDS011;38162;45.926;13.608;2023-04-25T12:16:50;2.30;;;1.38;;
52188;SDS011;38162;45.926;13.608;2023-04-25T12:19:19;4.80;;;1.35;;
52188;SDS011;38162;45.926;13.608;2023-04-25T12:21:45;3.00;;;1.50;;
52188;SDS011;38162;45.926;13.608;2023-04-25T12:24:21;1.30;;;1.00;;
52188;SDS011;38162;45.926;13.608;2023-04-25T12:29:33;2.60;;;1.25;;
52188;SDS011;38162;45.926;13.608;2023-04-25T12:31:59;2.10;;;1.40;;
52188;SDS011;38162;45.926;13.608;2023-04-25T12:34:26;4.00;;;1.65;;
52188;SDS011;38162;45.926;13.608;2023-04-25T12:36:53;2.28;;;1.15;;
52188;SDS011;38162;45.926;13.608;2023-04-25T12:39:23;5.55;;;1.30;;
52188;SDS011;38162;45.926;13.608;2023-04-25T12:41:53;3.28;;;2.40;;
52188;SDS011;38162;45.926;13.608;2023-04-25T12:44:19;11.23;;;3.70;;
52188;SDS011;38162;45.926;13.608;2023-04-25T12:46:46;3.28;;;1.67;;
52188;SDS011;38162;45.926;13.608;2023-04-25T12:49:12;3.95;;;1.85;;
52188;SDS011;38162;45.926;13.608;2023-04-25T12:51:38;5.32;;;1.80;;
52188;SDS011;38162;45.926;13.608;2023-04-25T12:54:04;3.17;;;1.90;;
52188;SDS011;38162;45.926;13.608;2023-04-25T12:56:34;2.97;;;1.90;;
52188;SDS011;38162;45.926;13.608;2023-04-25T12:59:01;4.10;;;1.80;;
52188;SDS011;38162;45.926;13.608;2023-04-25T13:01:30;4.97;;;1.95;;
52188;SDS011;38162;45.926;13.608;2023-04-25T13:03:56;3.95;;;1.30;;
52188;SDS011;38162;45.926;13.608;2023-04-25T13:06:22;4.05;;;1.80;;
52188;SDS011;38162;45.926;13.608;2023-04-25T13:08:48;2.75;;;1.50;;
52188;SDS011;38162;45.926;13.608;2023-04-25T13:11:14;4.63;;;1.50;;
52188;SDS011;38162;45.926;13.608;2023-04-25T13:13:40;8.13;;;3.33;;
52188;SDS011;38162;45.926;13.608;2023-04-25T13:16:06;3.72;;;2.10;;
52188;SDS011;38162;45.926;13.608;2023-04-25T13:18:32;6.90;;;1.90;;
52188;SDS011;38162;45.926;13.608;2023-04-25T13:20:59;3.35;;;2.00;;
52188;SDS011;38162;45.926;13.608;2023-04-25T13:23:26;4.43;;;1.70;;
52188;SDS011;38162;45.926;13.608;2023-04-25T13:25:52;4.50;;;1.95;;
52188;SDS011;38162;45.926;13.608;2023-04-25T13:28:20;3.03;;;1.48;;
52188;SDS011;38162;45.926;13.608;2023-04-25T13:30:46;3.08;;;1.40;;
52188;SDS011;38162;45.926;13.608;2023-04-25T13:33:13;2.75;;;1.60;;
52188;SDS011;38162;45.926;13.608;2023-04-25T13:35:39;5.07;;;1.70;;
52188;SDS011;38162;45.926;13.608;2023-04-25T13:38:05;3.20;;;1.45;;
52188;SDS011;38162;45.926;13.608;2023-04-25T13:40:30;7.63;;;1.55;;
52188;SDS011;38162;45.926;13.608;2023-04-25T13:42:57;3.30;;;1.80;;
52188;SDS011;38162;45.926;13.608;2023-04-25T13:45:22;4.18;;;1.52;;
52188;SDS011;38162;45.926;13.608;2023-04-25T13:47:48;6.20;;;2.42;;
52188;SDS011;38162;45.926;13.608;2023-04-25T13:50:14;2.28;;;1.10;;
52188;SDS011;38162;45.926;13.608;2023-04-25T13:52:41;1.58;;;1.27;;
52188;SDS011;38162;45.926;13.608;2023-04-25T13:55:07;5.93;;;1.65;;
52188;SDS011;38162;45.926;13.608;2023-04-25T13:57:34;1.73;;;1.00;;
52188;SDS011;38162;45.926;13.608;2023-04-25T14:00:00;3.47;;;1.17;;
52188;SDS011;38162;45.926;13.608;2023-04-25T14:02:31;4.70;;;1.35;;
52188;SDS011;38162;45.926;13.608;2023-04-25T14:04:56;2.30;;;1.40;;
52188;SDS011;38162;45.926;13.608;2023-04-25T14:07:22;2.58;;;1.10;;
52188;SDS011;38162;45.926;13.608;2023-04-25T14:09:48;3.65;;;1.50;;
52188;SDS011;38162;45.926;13.608;2023-04-25T14:12:15;3.67;;;1.50;;
52188;SDS011;38162;45.926;13.608;2023-04-25T14:14:40;3.53;;;1.38;;
52188;SDS011;38162;45.926;13.608;2023-04-25T14:17:07;4.07;;;1.67;;
52188;SDS011;38162;45.926;13.608;2023-04-25T14:19:34;3.78;;;1.70;;
52188;SDS011;38162;45.926;13.608;2023-04-25T14:21:59;2.60;;;1.30;;
52188;SDS011;38162;45.926;13.608;2023-04-25T14:24:25;2.42;;;1.55;;
52188;SDS011;38162;45.926;13.608;2023-04-25T14:26:51;3.13;;;1.40;;
52188;SDS011;38162;45.926;13.608;2023-04-25T14:29:17;4.85;;;1.30;;
52188;SDS011;38162;45.926;13.608;2023-04-25T14:31:42;2.30;;;1.20;;
52188;SDS011;38162;45.926;13.608;2023-04-25T14:34:08;3.35;;;1.42;;
52188;SDS011;38162;45.926;13.608;2023-04-25T14:36:35;2.22;;;1.13;;
52188;SDS011;38162;45.926;13.608;2023-04-25T14:39:01;2.55;;;1.08;;
52188;SDS011;38162;45.926;13.608;2023-04-25T14:41:27;2.35;;;1.13;;
52188;SDS011;38162;45.926;13.608;2023-04-25T14:43:53;1.58;;;0.98;;
52188;SDS011;38162;45.926;13.608;2023-04-25T14:46:19;1.65;;;1.00;;
52188;SDS011;38162;45.926;13.608;2023-04-25T14:48:45;2.58;;;0.90;;
52188;SDS011;38162;45.926;13.608;2023-04-25T14:51:12;2.38;;;1.10;;